Time;durP1;ratioP1;P1;durP2;ratioP2;P2;SDS_P1;SDS_P2;PMS_P1;PMS_P2;Temp;Humidity;BMP_temperature;BMP_pressure;BME280_temperature;BME280_humidity;BME280_pressure;Samples;Min_cycle;Max_cycle;Signal;HPM_P1;HPM_P2
2023/07/05 00:01:23;;;;;;;5.82;2.75;;;;;;;23.28;49.34;100382.88;5002142;28;20485;-65
2023/07/05 00:03:49;;;;;;;5.40;2.78;;;;;;;23.26;49.19;100375.06;5016080;28;20468;-63
2023/07/05 00:06:15;;;;;;;5.15;3.13;;;;;;;23.27;49.14;100366.06;5020392;28;20029;-63
2023/07/05 00:08:40;;;;;;;6.03;3.08;;;;;;;23.26;49.02;100345.81;5001572;28;20467;-65
2023/07/05 00:11:08;;;;;;;4.72;3.00;;;;;;;23.27;49.26;100350.09;5010685;28;20311;-65
2023/07/05 00:13:34;;;;;;;7.72;3.22;;;;;;;23.27;49.40;100354.59;5007692;28;20033;-65
2023/07/05 00:16:00;;;;;;;6.05;2.67;;;;;;;23.24;49.50;100329.22;5018741;28;20111;-65
2023/07/05 00:18:26;;;;;;;4.65;2.72;;;;;;;23.27;49.36;100320.06;5021204;28;20036;-64
2023/07/05 00:20:53;;;;;;;5.30;2.42;;;;;;;23.23;49.43;100294.81;5020676;28;20060;-64
2023/07/05 00:23:19;;;;;;;5.07;2.55;;;;;;;23.27;49.41;100298.78;5013976;28;20149;-64
2023/07/05 00:25:44;;;;;;;6.35;2.70;;;;;;;23.26;49.43;100297.16;5001773;28;20554;-64
2023/07/05 00:28:09;;;;;;;5.63;2.80;;;;;;;23.25;49.67;100290.16;5001280;28;20317;-64
2023/07/05 00:30:35;;;;;;;6.15;2.83;;;;;;;23.26;49.55;100286.50;5001438;28;20053;-65
2023/07/05 00:33:00;;;;;;;4.45;2.50;;;;;;;23.23;49.21;100274.38;5013819;28;20111;-64
2023/07/05 00:35:25;;;;;;;6.30;2.65;;;;;;;23.23;49.61;100257.63;5006098;28;20081;-64
2023/07/05 00:37:50;;;;;;;4.30;2.40;;;;;;;23.24;49.50;100240.66;5020723;28;20108;-64
2023/07/05 00:40:16;;;;;;;4.22;2.22;;;;;;;23.23;49.22;100221.22;5002051;28;20045;-65
2023/07/05 00:42:42;;;;;;;5.57;2.30;;;;;;;23.26;49.45;100236.00;5003074;28;20034;-65
2023/07/05 00:45:10;;;;;;;4.60;2.25;;;;;;;23.23;49.09;100253.13;5014942;28;20030;-64
2023/07/05 00:47:39;;;;;;;5.13;2.60;;;;;;;23.22;49.64;100258.59;5014064;28;20264;-64
2023/07/05 00:50:19;;;;;;;4.65;2.15;;;;;;;23.23;49.24;100253.13;5002857;28;20034;-63
2023/07/05 00:52:45;;;;;;;4.90;2.30;;;;;;;23.23;49.16;100245.13;5004454;28;20033;-66
2023/07/05 00:55:11;;;;;;;4.45;2.30;;;;;;;23.24;49.48;100243.31;5016271;28;20045;-63
2023/07/05 00:57:39;;;;;;;5.65;2.53;;;;;;;23.22;49.39;100234.69;5004179;28;20045;-63
2023/07/05 01:00:09;;;;;;;5.78;2.53;;;;;;;23.24;49.23;100232.66;5000939;28;20037;-66
2023/07/05 01:02:39;;;;;;;5.25;2.58;;;;;;;23.20;49.58;100224.22;5001201;28;20041;-65
2023/07/05 01:05:06;;;;;;;5.10;2.60;;;;;;;23.23;49.30;100229.19;5000736;28;20037;-64
2023/07/05 01:07:32;;;;;;;4.10;2.08;;;;;;;23.21;49.32;100217.06;5005987;28;20032;-65
2023/07/05 01:09:57;;;;;;;4.65;2.30;;;;;;;23.21;49.30;100206.44;5019852;28;20045;-66
2023/07/05 01:12:29;;;;;;;5.53;2.28;;;;;;;23.19;49.27;100198.63;5009256;28;20432;-66
2023/07/05 01:15:06;;;;;;;4.50;2.50;;;;;;;23.20;49.56;100205.63;5015165;28;20033;-64
2023/07/05 01:17:58;;;;;;;6.05;2.33;;;;;;;23.22;49.23;100213.41;5020239;28;20042;-63
2023/07/05 01:20:29;;;;;;;4.35;2.25;;;;;;;23.22;49.54;100211.56;5021102;28;20073;-64
2023/07/05 01:23:14;;;;;;;4.72;2.35;;;;;;;23.21;49.51;100209.94;5006627;28;20038;-66
2023/07/05 01:26:17;;;;;;;5.07;2.17;;;;;;;23.21;49.74;100217.91;5012242;28;20133;-64
2023/07/05 01:28:55;;;;;;;5.55;2.30;;;;;;;23.18;49.46;100212.94;5007364;28;20069;-66
2023/07/05 01:31:44;;;;;;;4.10;2.10;;;;;;;23.21;49.58;100225.03;5013895;28;20034;-65
2023/07/05 01:34:22;;;;;;;4.38;2.05;;;;;;;23.20;49.91;100224.22;5021110;28;20037;-65
2023/07/05 01:36:48;;;;;;;4.25;2.13;;;;;;;23.20;49.76;100229.53;5019599;28;20040;-64
2023/07/05 01:39:14;;;;;;;3.83;2.00;;;;;;;23.21;49.78;100227.69;5012920;28;21020;-64
2023/07/05 01:41:39;;;;;;;4.95;2.00;;;;;;;23.20;50.08;100218.91;5013483;28;20057;-66
2023/07/05 01:44:06;;;;;;;5.22;2.08;;;;;;;23.20;49.73;100223.41;5008241;28;20059;-67
2023/07/05 01:46:40;;;;;;;4.32;1.80;;;;;;;23.12;49.95;100224.25;5019897;28;20027;-65
2023/07/05 01:49:44;;;;;;;4.70;2.10;;;;;;;23.17;49.52;100235.19;5010888;28;20030;-64
2023/07/05 01:52:13;;;;;;;4.32;2.17;;;;;;;23.20;49.69;100237.50;5014214;28;20046;-65
2023/07/05 01:54:51;;;;;;;3.55;1.83;;;;;;;23.16;49.67;100239.69;5022578;28;20029;-66
2023/07/05 01:57:28;;;;;;;5.03;1.90;;;;;;;23.18;50.06;100248.31;5022655;28;20037;-64
2023/07/05 01:59:59;;;;;;;4.50;1.98;;;;;;;23.19;49.59;100262.41;5004466;28;20040;-64
2023/07/05 02:02:30;;;;;;;3.83;1.95;;;;;;;23.17;49.80;100267.91;5004149;28;20486;-64
2023/07/05 02:04:59;;;;;;;3.67;1.77;;;;;;;23.15;49.98;100271.75;5013651;28;20041;-64
2023/07/05 02:07:29;;;;;;;3.35;1.67;;;;;;;23.17;49.88;100291.00;5007735;28;20042;-66
2023/07/05 02:09:55;;;;;;;3.42;1.70;;;;;;;23.18;49.79;100301.47;5014375;28;20589;-65
2023/07/05 02:12:21;;;;;;;4.65;1.75;;;;;;;23.18;49.61;100303.31;5011865;28;20462;-65
2023/07/05 02:14:46;;;;;;;3.70;1.83;;;;;;;23.18;49.40;100317.41;5016588;28;20044;-64
2023/07/05 02:17:12;;;;;;;3.35;1.58;;;;;;;23.18;49.48;100312.09;5022626;28;20613;-66
2023/07/05 02:19:38;;;;;;;5.68;2.20;;;;;;;23.15;49.26;100317.75;5017600;28;20034;-66
2023/07/05 02:22:03;;;;;;;3.13;1.48;;;;;;;23.16;49.00;100331.88;5011255;28;20035;-64
2023/07/05 02:24:29;;;;;;;3.45;1.60;;;;;;;23.17;48.96;100331.69;5011825;28;20036;-65
2023/07/05 02:26:55;;;;;;;3.85;1.63;;;;;;;23.14;49.16;100324.06;5013177;28;20033;-65
2023/07/05 02:29:21;;;;;;;3.50;1.35;;;;;;;23.14;48.95;100328.56;5019879;28;20033;-63
2023/07/05 02:31:46;;;;;;;4.05;1.73;;;;;;;23.14;48.91;100337.34;5010509;28;20079;-65
2023/07/05 02:34:11;;;;;;;3.50;1.50;;;;;;;23.16;48.87;100338.03;5005808;28;20029;-66
2023/07/05 02:36:36;;;;;;;3.08;1.45;;;;;;;23.17;48.72;100368.91;5003356;28;20061;-64
2023/07/05 02:39:02;;;;;;;4.10;1.75;;;;;;;23.15;48.82;100352.31;5003238;28;20061;-64
2023/07/05 02:41:27;;;;;;;3.58;1.75;;;;;;;23.17;48.38;100349.50;5017705;28;20044;-65
2023/07/05 02:43:53;;;;;;;3.58;1.73;;;;;;;23.14;48.42;100349.81;5015708;28;20513;-66
2023/07/05 02:46:18;;;;;;;4.18;2.10;;;;;;;23.13;48.49;100351.66;5022733;28;20040;-64
2023/07/05 02:48:45;;;;;;;3.80;1.90;;;;;;;23.14;48.11;100350.66;5022386;28;20457;-65
2023/07/05 02:51:10;;;;;;;4.05;1.80;;;;;;;23.15;48.35;100349.66;5022508;28;20290;-66
2023/07/05 02:53:36;;;;;;;4.53;1.80;;;;;;;23.13;47.73;100342.84;5022789;28;20501;-66
2023/07/05 02:56:01;;;;;;;4.47;1.83;;;;;;;23.15;47.92;100348.84;5002556;28;21154;-63
2023/07/05 02:58:26;;;;;;;3.35;1.70;;;;;;;23.12;47.79;100344.69;5011021;28;20035;-61
2023/07/05 03:00:52;;;;;;;4.20;1.80;;;;;;;23.12;47.87;100341.19;5022350;28;20033;-64
2023/07/05 03:03:17;;;;;;;4.20;1.80;;;;;;;23.12;48.10;100339.38;5022096;28;20033;-64
2023/07/05 03:05:42;;;;;;;4.03;1.80;;;;;;;23.11;47.91;100340.34;5016710;28;20350;-64
2023/07/05 03:08:08;;;;;;;3.53;1.60;;;;;;;23.14;47.55;100347.16;5013160;28;20526;-66
2023/07/05 03:10:38;;;;;;;4.03;2.00;;;;;;;23.10;47.53;100335.22;5019662;28;20033;-65
2023/07/05 03:13:03;;;;;;;5.38;2.30;;;;;;;23.14;47.89;100344.50;5022400;28;20037;-64
2023/07/05 03:15:30;;;;;;;3.78;1.80;;;;;;;23.10;47.72;100343.22;5021690;28;20167;-67
2023/07/05 03:17:55;;;;;;;4.65;2.03;;;;;;;23.11;47.46;100353.63;5018076;28;20075;-65
2023/07/05 03:20:21;;;;;;;4.45;2.28;;;;;;;23.08;47.51;100345.19;5003426;28;20029;-65
2023/07/05 03:22:46;;;;;;;4.10;1.90;;;;;;;23.09;47.17;100346.84;5011903;28;20037;-64
2023/07/05 03:25:12;;;;;;;3.65;1.75;;;;;;;23.09;47.66;100350.34;5004781;28;20030;-64
2023/07/05 03:27:37;;;;;;;4.00;1.80;;;;;;;23.11;47.07;100347.50;5012116;28;20128;-65
2023/07/05 03:30:02;;;;;;;4.53;1.85;;;;;;;23.08;47.47;100339.88;5021597;28;20037;-64
2023/07/05 03:32:29;;;;;;;4.40;1.85;;;;;;;23.10;47.27;100349.34;5017711;28;20045;-63
2023/07/05 03:34:54;;;;;;;3.95;2.00;;;;;;;23.10;47.17;100346.69;5002356;28;20113;-65
2023/07/05 03:37:20;;;;;;;4.70;1.88;;;;;;;23.07;47.56;100340.84;5001649;28;20423;-64
2023/07/05 03:39:45;;;;;;;4.00;1.90;;;;;;;23.07;47.10;100333.69;5010359;28;20040;-63
2023/07/05 03:42:10;;;;;;;4.20;2.00;;;;;;;23.09;47.43;100353.00;5021317;28;20040;-65
2023/07/05 03:44:35;;;;;;;5.20;2.00;;;;;;;23.07;47.36;100354.97;5017327;28;20033;-67
2023/07/05 03:47:01;;;;;;;4.57;2.10;;;;;;;23.05;47.28;100351.66;5005725;28;20034;-64
2023/07/05 03:49:26;;;;;;;3.83;2.05;;;;;;;23.06;46.97;100352.47;5014163;28;20458;-63
2023/07/05 03:51:52;;;;;;;4.53;2.00;;;;;;;23.08;46.83;100353.16;5001569;28;20044;-64
2023/07/05 03:54:17;;;;;;;4.22;2.00;;;;;;;23.05;47.12;100351.66;5007589;28;20047;-66
2023/07/05 03:56:42;;;;;;;4.40;2.10;;;;;;;23.07;47.18;100356.81;5006636;28;20034;-64
2023/07/05 03:59:09;;;;;;;4.53;2.20;;;;;;;23.05;46.98;100338.38;5000550;28;20041;-65
2023/07/05 04:01:34;;;;;;;5.30;2.13;;;;;;;23.04;47.16;100338.53;5011929;28;20033;-63
2023/07/05 04:04:01;;;;;;;4.00;2.10;;;;;;;23.05;47.12;100338.38;5017175;28;20431;-64
2023/07/05 04:06:29;;;;;;;4.45;2.08;;;;;;;23.04;46.88;100325.25;5021347;28;20033;-64
2023/07/05 04:08:55;;;;;;;3.80;1.90;;;;;;;23.02;46.79;100336.03;5006314;28;20033;-64
2023/07/05 04:11:20;;;;;;;5.10;2.13;;;;;;;23.05;46.74;100334.84;5020753;28;20037;-66
2023/07/05 04:13:47;;;;;;;4.40;2.03;;;;;;;23.04;46.81;100339.34;5001779;28;20042;-64
2023/07/05 04:16:18;;;;;;;3.92;2.00;;;;;;;23.01;46.59;100335.19;5001223;28;20058;-65
2023/07/05 04:18:46;;;;;;;4.70;2.33;;;;;;;23.01;46.70;100329.06;5003755;28;20030;-65
2023/07/05 04:21:12;;;;;;;4.80;2.00;;;;;;;23.04;46.72;100338.53;5020436;28;20037;-64
2023/07/05 04:23:39;;;;;;;4.88;2.17;;;;;;;23.01;46.94;100337.03;5016919;28;20030;-65
2023/07/05 04:26:12;;;;;;;4.72;2.33;;;;;;;23.00;47.08;100361.94;5004699;28;20033;-63
2023/07/05 04:28:40;;;;;;;5.00;2.35;;;;;;;23.02;46.75;100352.00;5002031;28;20069;-66
2023/07/05 04:31:09;;;;;;;5.53;2.50;;;;;;;23.03;46.52;100352.81;5001339;28;20455;-64
2023/07/05 04:33:34;;;;;;;4.20;1.95;;;;;;;22.98;46.55;100343.50;5012668;28;20025;-64
2023/07/05 04:36:00;;;;;;;4.43;2.10;;;;;;;23.00;46.61;100343.34;5016441;28;20045;-64
2023/07/05 04:38:26;;;;;;;4.30;2.35;;;;;;;23.01;46.79;100359.09;5010938;28;20037;-65
2023/07/05 04:40:51;;;;;;;3.80;2.05;;;;;;;23.00;46.58;100346.00;5020607;28;20025;-67
2023/07/05 04:43:17;;;;;;;4.65;2.28;;;;;;;22.99;46.79;100350.50;5016324;28;20517;-63
2023/07/05 04:45:52;;;;;;;4.50;2.10;;;;;;;22.99;46.70;100347.81;5008914;28;20033;-64
2023/07/05 04:48:18;;;;;;;6.10;2.63;;;;;;;23.00;46.67;100352.16;5001492;28;20060;-63
2023/07/05 04:50:44;;;;;;;6.05;2.40;;;;;;;22.99;46.48;100349.66;5004441;28;20033;-64
2023/07/05 04:53:09;;;;;;;5.15;2.60;;;;;;;23.00;46.38;100343.34;5009350;28;20068;-64
2023/07/05 04:55:34;;;;;;;4.38;2.35;;;;;;;22.99;46.47;100341.69;5012097;28;20449;-64
2023/07/05 04:58:03;;;;;;;5.43;2.30;;;;;;;22.98;46.24;100346.16;5021232;28;20478;-64
2023/07/05 05:00:29;;;;;;;5.47;2.30;;;;;;;22.95;46.21;100346.50;5024564;28;20033;-64
2023/07/05 05:02:54;;;;;;;5.35;2.50;;;;;;;22.96;45.71;100348.16;5023156;28;20436;-65
2023/07/05 05:05:20;;;;;;;5.25;2.65;;;;;;;22.95;45.87;100345.69;5011676;28;20454;-66
2023/07/05 05:07:45;;;;;;;4.57;2.13;;;;;;;22.97;46.25;100357.81;5019520;28;20033;-66
2023/07/05 05:10:10;;;;;;;5.60;2.70;;;;;;;22.98;45.89;100363.94;5004864;28;20037;-66
2023/07/05 05:12:36;;;;;;;5.63;2.80;;;;;;;22.97;45.96;100359.63;5022986;28;20052;-65
2023/07/05 05:15:02;;;;;;;4.93;2.40;;;;;;;22.97;45.79;100362.28;5021233;28;20036;-64
2023/07/05 05:17:27;;;;;;;4.80;2.28;;;;;;;22.96;45.51;100374.72;5004771;28;20042;-65
2023/07/05 05:19:52;;;;;;;4.50;2.40;;;;;;;22.94;46.00;100359.94;5004592;28;20036;-66
2023/07/05 05:22:18;;;;;;;5.13;2.50;;;;;;;22.96;46.22;100372.06;5004568;28;20037;-67
2023/07/05 05:24:43;;;;;;;5.50;2.53;;;;;;;22.95;45.22;100362.44;5015389;28;20282;-63
2023/07/05 05:27:08;;;;;;;5.55;2.53;;;;;;;22.95;45.52;100370.41;5004432;28;20270;-65
2023/07/05 05:29:33;;;;;;;4.60;2.50;;;;;;;22.94;45.89;100362.59;5012985;28;20051;-65
2023/07/05 05:31:59;;;;;;;4.47;2.40;;;;;;;22.93;45.89;100353.00;5012759;28;20057;-66
2023/07/05 05:34:25;;;;;;;6.68;2.60;;;;;;;22.95;45.88;100366.94;5016159;28;20064;-66
2023/07/05 05:36:51;;;;;;;6.05;2.40;;;;;;;22.94;46.28;100370.56;5023214;28;20037;-67
2023/07/05 05:39:16;;;;;;;6.60;2.30;;;;;;;22.92;46.19;100364.59;5021833;28;20103;-66
2023/07/05 05:41:41;;;;;;;5.38;2.47;;;;;;;22.91;46.22;100358.47;5023729;28;20025;-65
2023/07/05 05:44:07;;;;;;;4.05;2.17;;;;;;;22.90;46.29;100378.06;5013250;28;20714;-67
2023/07/05 05:46:33;;;;;;;4.63;2.15;;;;;;;22.90;46.29;100377.25;5014967;28;20378;-67
2023/07/05 05:48:59;;;;;;;5.88;2.70;;;;;;;22.89;45.85;100375.56;5014524;28;20033;-66
2023/07/05 05:51:24;;;;;;;5.10;2.33;;;;;;;22.92;45.82;100373.44;5003981;28;20395;-65
2023/07/05 05:53:49;;;;;;;4.78;2.40;;;;;;;22.91;46.35;100382.38;5021695;28;20038;-65
2023/07/05 05:56:15;;;;;;;5.45;2.30;;;;;;;22.90;46.22;100386.03;5005329;28;20037;-65
2023/07/05 05:58:40;;;;;;;5.77;2.17;;;;;;;22.91;46.06;100385.03;5005002;28;20117;-67
2023/07/05 06:01:05;;;;;;;5.63;2.30;;;;;;;22.94;46.00;100383.88;5004771;28;20279;-64
2023/07/05 06:03:30;;;;;;;4.50;2.40;;;;;;;22.90;46.16;100399.31;5007814;28;20349;-66
2023/07/05 06:05:56;;;;;;;4.90;2.30;;;;;;;22.90;45.87;100409.13;5015265;28;20176;-69
2023/07/05 06:08:22;;;;;;;6.10;2.60;;;;;;;22.91;45.81;100414.28;5003681;28;20118;-66
2023/07/05 06:10:54;;;;;;;4.97;2.28;;;;;;;22.91;46.00;100424.09;5015791;28;20458;-66
2023/07/05 06:13:20;;;;;;;5.28;2.20;;;;;;;22.92;45.97;100412.44;5023409;28;20029;-67
2023/07/05 06:15:45;;;;;;;4.30;2.15;;;;;;;22.91;46.13;100426.75;5021059;28;20045;-65
2023/07/05 06:18:10;;;;;;;6.35;2.40;;;;;;;22.87;46.33;100428.06;5022605;28;20045;-68
2023/07/05 06:20:36;;;;;;;4.35;2.20;;;;;;;22.88;46.11;100430.53;5010484;28;20029;-67
2023/07/05 06:23:03;;;;;;;6.35;2.30;;;;;;;22.89;46.05;100434.03;5022776;28;20128;-65
2023/07/05 06:25:30;;;;;;;7.38;2.70;;;;;;;22.88;45.96;100441.16;5018186;28;20025;-68
2023/07/05 06:27:55;;;;;;;5.90;2.47;;;;;;;22.80;46.13;100418.09;5022028;28;20068;-68
2023/07/05 06:30:20;;;;;;;6.57;2.30;;;;;;;22.89;46.37;100444.66;5015637;28;20067;-68
2023/07/05 06:32:46;;;;;;;6.78;2.50;;;;;;;22.87;46.04;100441.34;5003675;28;20153;-68
2023/07/05 06:35:11;;;;;;;6.90;2.50;;;;;;;22.89;46.29;100424.25;5012376;28;20033;-66
2023/07/05 06:37:36;;;;;;;5.00;2.15;;;;;;;22.88;46.22;100440.34;5006153;28;20041;-67
2023/07/05 06:40:03;;;;;;;5.00;2.20;;;;;;;22.87;46.35;100444.00;5015086;28;20336;-67
2023/07/05 06:42:28;;;;;;;5.10;2.05;;;;;;;22.87;46.36;100434.19;5009756;28;20033;-67
2023/07/05 06:44:53;;;;;;;6.07;1.98;;;;;;;22.87;46.65;100459.94;5022953;28;20084;-68
2023/07/05 06:47:19;;;;;;;6.35;2.25;;;;;;;22.86;46.16;100447.63;5021722;28;20041;-70
2023/07/05 06:49:44;;;;;;;4.70;2.10;;;;;;;22.90;45.64;100467.56;5002901;28;20034;-69
2023/07/05 06:52:09;;;;;;;6.18;2.22;;;;;;;22.90;45.76;100473.72;5011161;28;20120;-66
2023/07/05 06:54:35;;;;;;;6.18;2.03;;;;;;;22.87;46.22;100457.28;5018922;28;20035;-71
2023/07/05 06:57:00;;;;;;;4.57;1.77;;;;;;;22.90;45.94;100472.88;5019491;28;20120;-65
2023/07/05 06:59:26;;;;;;;5.10;1.70;;;;;;;22.87;45.95;100471.38;5007664;28;20030;-66
2023/07/05 07:01:51;;;;;;;6.00;2.25;;;;;;;22.85;45.87;100481.34;5002856;28;20486;-66
2023/07/05 07:04:16;;;;;;;5.50;2.30;;;;;;;22.88;45.87;100499.63;5014026;28;20037;-64
2023/07/05 07:06:42;;;;;;;4.50;2.15;;;;;;;22.86;45.80;100493.66;5022600;28;20037;-65
2023/07/05 07:09:10;;;;;;;5.55;2.13;;;;;;;22.86;45.91;100498.13;5011500;28;20036;-66
2023/07/05 07:11:35;;;;;;;5.68;1.85;;;;;;;22.86;45.92;100498.97;5012338;28;20044;-68
2023/07/05 07:14:01;;;;;;;5.70;2.00;;;;;;;22.88;45.53;100498.81;5022754;28;20034;-67
2023/07/05 07:16:26;;;;;;;7.03;1.95;;;;;;;22.88;45.63;100510.25;5014414;28;20501;-63
2023/07/05 07:18:51;;;;;;;5.72;2.30;;;;;;;22.84;45.79;100508.91;5007637;28;20129;-63
2023/07/05 07:21:18;;;;;;;6.47;2.00;;;;;;;22.85;45.53;100520.38;5011908;28;20462;-64
2023/07/05 07:23:48;;;;;;;6.00;2.15;;;;;;;22.86;45.58;100514.06;5010677;28;20047;-63
2023/07/05 07:26:16;;;;;;;7.57;2.00;;;;;;;22.85;45.88;100526.53;5014800;28;20034;-65
2023/07/05 07:28:46;;;;;;;4.78;1.90;;;;;;;22.80;45.69;100526.19;5002710;28;20029;-65
2023/07/05 07:31:33;;;;;;;8.68;2.22;;;;;;;22.80;45.54;100548.25;5016192;28;20041;-64
2023/07/05 07:34:07;;;;;;;5.72;2.00;;;;;;;22.90;45.65;100556.06;5006663;28;20121;-70
2023/07/05 07:36:34;;;;;;;5.53;1.60;;;;;;;22.97;45.15;100558.91;5002288;28;20115;-68
2023/07/05 07:39:00;;;;;;;6.97;1.60;;;;;;;22.97;45.41;100566.88;5012113;28;20034;-66
2023/07/05 07:41:34;;;;;;;5.40;1.80;;;;;;;22.97;45.34;100580.16;5020167;28;20037;-66
2023/07/05 07:44:04;;;;;;;7.82;1.92;;;;;;;22.96;45.57;100582.00;5013934;28;20033;-69
2023/07/05 07:46:31;;;;;;;4.20;1.83;;;;;;;22.92;45.69;100579.81;5019828;28;20155;-69
2023/07/05 07:49:00;;;;;;;4.20;1.75;;;;;;;22.92;45.54;100561.22;5020612;28;20250;-70
2023/07/05 07:51:31;;;;;;;4.32;2.13;;;;;;;22.86;45.67;100575.16;5012015;28;20042;-68
2023/07/05 07:53:56;;;;;;;7.32;1.70;;;;;;;22.89;45.09;100598.75;5012754;28;20030;-69
2023/07/05 07:56:23;;;;;;;4.60;2.00;;;;;;;22.85;45.64;100600.91;5011935;28;20036;-67
2023/07/05 07:58:51;;;;;;;6.50;1.98;;;;;;;22.86;45.33;100607.91;5021654;28;20037;-68
2023/07/05 08:01:38;;;;;;;4.28;1.45;;;;;;;22.87;45.59;100579.50;5006421;28;20044;-67
2023/07/05 08:04:05;;;;;;;6.03;1.80;;;;;;;22.84;45.41;100591.25;5010259;28;20037;-68
2023/07/05 08:06:39;;;;;;;6.15;1.70;;;;;;;22.83;45.83;100601.06;5010307;28;20033;-70
2023/07/05 08:09:08;;;;;;;;;;;;;;;22.91;45.43;100599.44;5017189;28;20179;-68
2023/07/05 08:11:35;;;;;;;5.32;1.90;;;;;;;22.85;45.48;100584.16;5013226;28;19955;-71
2023/07/05 08:14:00;;;;;;;4.57;1.42;;;;;;;22.80;45.62;100595.25;5018405;28;20041;-67
2023/07/05 08:16:26;;;;;;;5.03;1.95;;;;;;;22.81;46.01;100603.06;5012668;28;20068;-68
2023/07/05 08:18:52;;;;;;;4.00;1.45;;;;;;;22.74;45.65;100611.84;5010743;28;20038;-68
2023/07/05 08:21:18;;;;;;;5.05;1.70;;;;;;;22.74;45.78;100610.00;5009855;28;20371;-69
2023/07/05 08:23:44;;;;;;;4.75;1.63;;;;;;;22.71;46.11;100615.63;5005960;28;20041;-69
2023/07/05 08:26:11;;;;;;;4.88;1.45;;;;;;;22.71;45.55;100612.97;5010382;28;20065;-68
2023/07/05 08:28:37;;;;;;;4.07;1.50;;;;;;;22.73;45.73;100618.13;5017037;28;20246;-68
2023/07/05 08:31:04;;;;;;;4.18;1.40;;;;;;;22.71;45.99;100617.47;5006184;28;20497;-68
2023/07/05 08:33:31;;;;;;;3.70;1.67;;;;;;;22.64;45.83;100627.91;5007676;28;20030;-71
2023/07/05 08:36:12;;;;;;;4.25;1.42;;;;;;;22.64;46.09;100630.56;5013761;28;20029;-67
2023/07/05 08:38:51;;;;;;;4.50;1.40;;;;;;;22.64;45.93;100635.88;5013393;28;20038;-68
2023/07/05 08:41:31;;;;;;;4.45;1.67;;;;;;;22.69;45.63;100652.16;5007268;28;20538;-68
2023/07/05 08:44:31;;;;;;;6.35;1.85;;;;;;;22.72;45.65;100659.00;5018540;28;20033;-68
2023/07/05 08:47:05;;;;;;;3.85;1.55;;;;;;;22.61;45.68;100652.13;5013370;28;20539;-68
2023/07/05 08:49:36;;;;;;;3.13;1.40;;;;;;;22.64;45.90;100659.78;5007078;28;20034;-69
2023/07/05 08:52:03;;;;;;;3.33;1.50;;;;;;;22.69;45.88;100665.44;5013892;28;20483;-67
2023/07/05 08:54:32;;;;;;;4.90;1.63;;;;;;;22.69;46.07;100686.69;5014339;28;20107;-67
2023/07/05 08:57:11;;;;;;;4.68;1.60;;;;;;;22.63;45.80;100668.72;5005394;28;20030;-69
2023/07/05 08:59:57;;;;;;;4.40;1.48;;;;;;;22.69;45.84;100670.75;5010393;28;20091;-68
2023/07/05 09:02:23;;;;;;;4.07;1.55;;;;;;;22.68;45.86;100674.38;5012172;28;20029;-68
2023/07/05 09:04:49;;;;;;;6.22;1.50;;;;;;;22.64;45.77;100686.34;5007563;28;20115;-69
2023/07/05 09:07:18;;;;;;;4.55;1.90;;;;;;;22.59;45.88;100693.94;5009279;28;20064;-69
2023/07/05 09:10:34;;;;;;;4.25;1.70;;;;;;;22.61;46.00;100691.97;5011547;28;20042;-67
2023/07/05 09:13:02;;;;;;;4.68;1.88;;;;;;;22.63;45.83;100695.28;4950029;28;20039;-69
2023/07/05 09:15:34;;;;;;;6.80;1.80;;;;;;;22.61;46.08;100697.28;4950543;28;20055;-68
2023/07/05 09:18:56;;;;;;;4.80;1.67;;;;;;;22.58;45.76;100709.03;4995033;28;20481;-68
2023/07/05 09:21:21;;;;;;;5.68;2.00;;;;;;;22.67;45.61;100714.38;4944293;28;20046;-68
2023/07/05 09:24:07;;;;;;;4.40;1.33;;;;;;;22.60;46.05;100716.84;4946515;28;20034;-68
2023/07/05 09:26:37;;;;;;;5.68;1.60;;;;;;;22.57;45.84;100712.69;4992586;28;20283;-70
2023/07/05 09:29:40;;;;;;;4.15;1.40;;;;;;;22.60;45.80;100724.81;5004791;28;20049;-68
2023/07/05 09:32:12;;;;;;;3.90;1.40;;;;;;;22.59;46.09;100731.13;5008541;28;20037;-70
2023/07/05 09:34:55;;;;;;;4.82;1.70;;;;;;;22.61;46.01;100724.66;5006673;28;20045;-71
2023/07/05 09:37:26;;;;;;;3.92;1.80;;;;;;;22.60;45.73;100730.13;5008073;28;20120;-68
2023/07/05 09:40:18;;;;;;;3.72;1.35;;;;;;;22.58;45.61;100758.66;5017407;28;20030;-69
2023/07/05 09:42:55;;;;;;;3.75;1.45;;;;;;;22.55;45.39;100749.19;5011196;28;20026;-68
2023/07/05 09:45:21;;;;;;;3.47;1.48;;;;;;;22.57;45.49;100738.41;5011480;28;20525;-69
2023/07/05 09:47:50;;;;;;;4.22;1.52;;;;;;;22.62;45.28;100767.97;5028217;28;20076;-68
2023/07/05 09:50:20;;;;;;;5.47;1.70;;;;;;;22.61;45.27;100763.69;5010886;28;20040;-67
2023/07/05 09:52:50;;;;;;;5.68;1.60;;;;;;;22.59;45.30;100763.00;5014684;28;20088;-68
2023/07/05 09:55:17;;;;;;;3.47;1.35;;;;;;;22.63;45.18;100770.47;5009297;28;20095;-67
2023/07/05 09:57:44;;;;;;;4.93;1.48;;;;;;;22.65;45.25;100770.31;5019361;28;20367;-67
2023/07/05 10:00:23;;;;;;;6.35;1.50;;;;;;;22.62;45.18;100787.44;5011114;28;20112;-68
2023/07/05 10:02:51;;;;;;;2.80;1.20;;;;;;;22.64;45.07;100789.91;5015409;28;20385;-68
2023/07/05 10:05:29;;;;;;;5.00;1.52;;;;;;;22.60;44.92;100789.38;5016078;28;20084;-67
2023/07/05 10:08:00;;;;;;;6.10;1.30;;;;;;;22.61;44.73;100803.50;5012085;28;20033;-68
2023/07/05 10:10:32;;;;;;;5.20;1.50;;;;;;;22.56;44.46;100798.66;5012598;28;20376;-68
2023/07/05 10:13:03;;;;;;;4.70;1.50;;;;;;;22.53;44.68;100811.44;5009886;28;20091;-68
2023/07/05 10:15:28;;;;;;;3.17;1.25;;;;;;;22.58;44.98;100809.13;5014348;28;20053;-69
2023/07/05 10:17:55;;;;;;;4.47;1.30;;;;;;;22.60;44.94;100802.66;5020212;28;20040;-71
2023/07/05 10:20:23;;;;;;;5.15;1.55;;;;;;;22.59;44.63;100827.56;5017495;28;20033;-74
2023/07/05 10:22:58;;;;;;;5.32;1.50;;;;;;;22.58;44.65;100825.91;5012342;28;20026;-72
2023/07/05 10:25:23;;;;;;;5.28;1.50;;;;;;;22.65;44.94;100836.72;5029873;28;20033;-69
2023/07/05 10:27:50;;;;;;;5.57;1.30;;;;;;;22.64;44.87;100825.28;5007296;28;20044;-67
2023/07/05 10:30:20;;;;;;;5.47;1.40;;;;;;;22.62;44.78;100839.69;5021010;28;20026;-64
2023/07/05 10:33:20;;;;;;;5.78;1.25;;;;;;;22.61;44.86;100846.00;5021584;28;20126;-63
2023/07/05 10:36:05;;;;;;;8.88;1.70;;;;;;;22.59;44.70;100838.19;5009968;28;20121;-66
2023/07/05 10:38:47;;;;;;;3.40;1.30;;;;;;;22.59;44.93;100845.34;5008061;28;20517;-66
2023/07/05 10:41:26;;;;;;;5.60;1.48;;;;;;;22.60;44.61;100846.97;5012877;28;20034;-64
2023/07/05 10:44:02;;;;;;;6.07;1.73;;;;;;;22.61;44.67;100832.72;5008335;28;20034;-66
2023/07/05 10:46:28;;;;;;;8.57;1.75;;;;;;;22.65;44.74;100855.31;5016503;28;20409;-66
2023/07/05 10:48:56;;;;;;;12.52;1.90;;;;;;;22.64;44.73;100841.22;5013592;28;20104;-65
2023/07/05 10:51:24;;;;;;;8.40;1.73;;;;;;;22.64;44.92;100859.81;5015598;28;20088;-65
2023/07/05 10:54:00;;;;;;;5.88;1.60;;;;;;;22.64;44.42;100866.94;5011439;28;20029;-66
2023/07/05 10:56:31;;;;;;;7.00;1.75;;;;;;;22.75;44.43;100880.00;5013082;28;20123;-67
2023/07/05 10:59:12;;;;;;;8.18;1.50;;;;;;;22.78;44.21;100887.66;5010906;28;20044;-67
2023/07/05 11:01:42;;;;;;;9.27;1.70;;;;;;;22.91;44.12;100889.91;5015859;28;20069;-67
2023/07/05 11:04:17;;;;;;;6.18;1.98;;;;;;;22.93;44.39;100879.13;5014785;28;20060;-68
2023/07/05 11:06:45;;;;;;;6.50;1.50;;;;;;;22.97;44.15;100891.09;5008002;28;20065;-67
2023/07/05 11:09:11;;;;;;;6.65;1.50;;;;;;;22.89;43.80;100891.88;5014322;28;20045;-63
2023/07/05 11:11:45;;;;;;;8.13;1.48;;;;;;;22.79;43.77;100894.59;5015346;28;20037;-65
2023/07/05 11:14:13;;;;;;;11.68;1.63;;;;;;;22.89;44.18;100907.84;5010876;28;20125;-64
2023/07/05 11:16:43;;;;;;;6.10;1.55;;;;;;;22.97;44.02;100899.06;5016787;28;20057;-66
2023/07/05 11:19:26;;;;;;;4.72;1.30;;;;;;;23.00;43.54;100917.34;5008200;28;20034;-65
2023/07/05 11:21:52;;;;;;;5.05;1.40;;;;;;;22.94;43.73;100908.19;5018629;28;20099;-68
2023/07/05 11:24:36;;;;;;;10.65;1.40;;;;;;;22.91;43.54;100910.34;5012419;28;20038;-68
2023/07/05 11:27:24;;;;;;;7.80;1.60;;;;;;;22.88;43.73;100911.47;5005760;28;20025;-68
2023/07/05 11:29:53;;;;;;;4.53;1.50;;;;;;;22.85;43.55;100903.81;5013148;28;20038;-68
2023/07/05 11:32:21;;;;;;;9.68;1.65;;;;;;;22.84;43.76;100899.47;5013356;28;20038;-68
2023/07/05 11:34:49;;;;;;;5.25;1.30;;;;;;;22.79;43.63;100905.25;5015109;28;20099;-68